首页
METAR-TAF:

METAR-TAF

机场 :

帕德博恩/利普施塔特机场

Paderborn-Lippstadt, 德国

纬度: 51-37N, 经度: 008-37E, 海拔: 213米

当前天气观测

该预报发布于27分钟前的01:20 UTC
风速3节,风向西转西北,在西南北转西北之间变化
温度 4°C
湿度 93%
气压 1003 hPa
能見度: 0450

METAR: EDLP 180120Z 29003KT 230V330 0450 R24/0600N FG VV002 04/03 Q1003

时间: 02:47 (01:47 UTC)

预报

该预报发布于2小时和47分钟前的23:00 UTC
预报有效从18日的 00点(UTC)到 18日的 24点(UTC)
风速4节,风向北转西北
能見度: 2500
阴天层高于500英尺
轻雾
短暂存在
从 18日的 00点(UTC)到 18日的 08点(UTC)
能見度: 0400
阴天层低于100英尺
小雨, 毛毛雨, 雾
成为
从 18日的 08点(UTC)到 18日的 11点(UTC)
风速7节,风向南转西南
能見度: 6000
多云层高于1200英尺
短暂存在
从 18日的 12点(UTC)到 18日的 20点(UTC)
风速15节,风向南转西南
多云层高于2000英尺
短暂存在
从 18日的 20点(UTC)到 18日的 24点(UTC)
风速15节,风向南转西南,有时为25节阵风
能見度: 4000
多云层高于800英尺

TAF: EDLP 172300Z 1800/1824 34004KT 2500 BR OVC005 TEMPO 1800/1808 0400 -RADZ FG OVC000 BECMG 1808/1811 20007KT 6000 BKN012 TEMPO 1812/1820 21015KT BKN020 TEMPO 1820/1824 20015G25KT 4000 RA BKN008

超过4000个机场的气象观测和天气预报(METAR&TAF报告)。

可查询的气象台以黄色和红色小点在地图上表示。

将鼠标移到小点上方,可查看气象台名称。

然后点击查看天气观测和预报。

如需切换地图:点击带黑十字的绿色按钮放大地图;点击带横线的绿色按钮缩小地图;或者点击绿色箭头查看邻近地区的地图。


METAR-TAF: